Etusivu
METAR-TAF:

METAR-TAF

Lentoasemat :

Orange_County_Airport

Orange, Texas, Yhdysvallat

Leveyspiiri: 30-04-09N, Pituuspiiri: 093-48-13W, korkeus merenpinnasta: 4 m

Tämänhetkinen sää

Tämä raportti tehtiin 21 minuuttia sitten, kello 17.35 UTC
Tuuli 13 kn etelästä/lounaasta puuskistuen 18 kn:hen
Lämpötila 32°C
Kosteus 75%
Ilmanpaine 1013 hPa
Näkyvyys: 16.1 km
Hajonneita pilviä 2900 ft:n korkeudessa
Hajonneita pilviä 3600 ft:n korkeudessa

METAR: KORG 201735Z AUTO 21013G18KT 10SM BKN029 BKN036 32/27 A2990 RMK AO2 T03190270

Aika: 12:56 (17:56 UTC)


TAF: puuttuu

Säähavainnot ja -ennusteet yli 4000 lentoasemalta (METAR- ja TAF-raportit).

Käytössä olevat sääasemat on merkitty karttaan keltaisilla ja punaisilla pisteillä.

Aseta hiiri pisteen päälle nähdäksesi sääaseman nimen.

Klikkaa sitten nähdäksesi säähavainnot ja -ennusteet.

Kartan vaihtaminen: klikkaa mustalla rastilla varustettuja vihreitä pisteitä, niin voit zoomata sisään; viivalla varustettua vihreää pistettä, niin voit zoomata ulos tai vihreitä nuolia, niin pääset viereisille kartoille.


METAR-TAF: